Terminal Aerodrome Forecast
Issued by NWS

Home | Current Version | Previous Version | Text Only | Print | Product List | Glossary On
Versions: 1 2 3 4 5 6 7 8 9 10 11 12 13 14 15 16 17 18 19
000
FTUS43 KSGF 040951 AAG
TAFBBG
TAF AMD
KBBG 040951Z 0410/0506 11009KT 2SM BR OVC004
      TEMPO 0411/0415 1SM -RA BR
     FM041500 00000KT P6SM OVC008
     FM041900 30005KT P6SM OVC015
     FM042100 31005KT P6SM BKN040
     FM050000 31004KT P6SM SCT080=

USA.gov is the U.S. government's official web portal to all federal, state and local government web resources and services.